British Resource — 2ICI2 — position and weather

sailwx.info

Track history (hours):
 
Tides and Currents Weather Stations Pressure Air Temp Water Temp Dewpoint Dewpoint Depression Visibility Wind Speed Wind Dir Waves Ship Positions

British Resource

Last reported at 2017-Nov-25 07:30 UTC. Time now 2017-Nov-25 07:54 UTC.
Position N 57°41' E 011°47'.

Length 250 m; draft 9 m.

Type: Ship. MMSI: 235108528.

Date/timePositionNaut miles runAvg speedWind from/ knotsBaromVisibWave heightAir tempDewpointWater temp
2017-Nov-25 07:30N 57°41' E 011°47'0 0.0
2017-Nov-25 07:00N 57°41' E 011°47'0 0.0
2017-Nov-25 06:29N 57°41' E 011°47'0 0.0
2017-Nov-25 05:51N 57°41' E 011°47'0 0.0
2017-Nov-25 05:24N 57°41' E 011°47'0 0.0
2017-Nov-25 04:59N 57°41' E 011°47'0 0.0
2017-Nov-25 04:29N 57°41' E 011°47'0 0.0
2017-Nov-25 04:00N 57°41' E 011°47'0 0.0
2017-Nov-25 03:29N 57°41' E 011°47'0 0.0
2017-Nov-25 02:59N 57°41' E 011°47'0 0.3
2017-Nov-25 02:31N 57°41' E 011°47'2 4.0
2017-Nov-25 02:00N 57°41' E 011°43'5 9.0
2017-Nov-25 01:30N 57°37' E 011°40'4 8.6
2017-Nov-25 01:00N 57°37' E 011°32'3 6.9
2017-Nov-25 00:30N 57°39' E 011°27'3 5.3
2017-Nov-25 00:00N 57°41' E 011°23'65481071462.9
2017-Nov-25 00:00S 16°06' E 097°24'655113484.9 110 / 191012.310.8 24.519.124.2
2017-Nov-24 23:30N 57°43' E 011°19'3 6.9
2017-Nov-24 23:00N 57°45' E 011°15'510.2
2017-Nov-24 22:30N 57°49' E 011°09'5 9.8
2017-Nov-24 22:01N 57°53' E 011°03'4 8.6
2017-Nov-24 21:30N 57°56' E 010°58'4 8.0
2017-Nov-24 20:58N 57°59' E 010°51'510.4
2017-Nov-24 20:30N 57°58' E 010°42'510.0
2017-Nov-24 20:00N 57°58' E 010°33'4 8.5
2017-Nov-24 19:30N 57°59' E 010°25'4 7.1
2017-Nov-24 19:01N 57°59' E 010°18'6608941.8
2017-Nov-24 12:00S 17°48' E 095°24'7512.4 150 / 191012.310.8 24.019.423.4
2017-Nov-24 06:00S 18°36' E 094°24'67166716.2 140 / 241014.310.8 22.019.523.4
2017-Nov-24 05:00N 56°18' E 006°30'67101342.0 250 / 251002.710.8 7.0 5.910.6
2017-Nov-24 00:00S 19°18' E 093°24'67154436.7 140 / 151014.610.8 22.816.422.9
2017-Nov-23 22:29N 55°17' E 005°39'5211.6
2017-Nov-23 18:00N 54°30' E 005°00'67061117.7 240 / 40996.8 5.4 11.0 5.611.1
2017-Nov-23 12:00S 20°48' E 091°18'67241120.7 120 / 211013.210.8 22.816.823.4
2017-Nov-23 06:00N 52°24' E 003°06'24 7.3 190 / 30989.0 5.4 13.0 9.111.8
2017-Nov-23 02:45N 52°08' E 003°34'3 9.7
2017-Nov-23 02:29N 52°07' E 003°38'510.2
2017-Nov-23 02:00N 52°04' E 003°45'510.2
2017-Nov-23 01:30N 52°03' E 003°53'510.6
2017-Nov-23 01:00N 52°00' E 004°00'3 7.0
2017-Nov-23 00:30N 51°58' E 004°04'0 0.1
2017-Nov-22 23:57N 51°58' E 004°04'0 0.0
2017-Nov-22 23:27N 51°58' E 004°04'0 0.0
2017-Nov-22 22:57N 51°58' E 004°04'0 0.0
2017-Nov-22 22:27N 51°58' E 004°04'0 0.0
2017-Nov-22 21:57N 51°58' E 004°04'0 0.0
2017-Nov-22 21:27N 51°58' E 004°04'0 0.0
2017-Nov-22 20:51N 51°58' E 004°04'0 0.0
2017-Nov-22 20:21N 51°58' E 004°04'0 0.0
2017-Nov-22 19:57N 51°58' E 004°04'0 0.0
2017-Nov-22 19:27N 51°58' E 004°04'6589883.5
2017-Nov-22 12:00S 23°18' E 086°36'7813.0 060 / 101013.110.8 23.417.122.3
2017-Nov-22 06:00S 24°00' E 085°24'6711.2 030 / 121014.410.8 24.019.522.4
2017-Nov-22 00:00S 24°30' E 084°18'7913.2 040 / 111014.510.8 22.917.522.3
2017-Nov-21 18:00S 25°06' E 083°00'14612.1 010 / 91015.410.8 21.219.322.5
2017-Nov-21 06:00S 26°12' E 080°36'30712.8 320 / 111019.010.8 22.018.922.6
2017-Nov-20 06:00S 28°24' E 075°24'15212.6 350 / 41018.810.8 22.017.520.8
2017-Nov-19 18:00S 29°30' E 072°48'66513245.4 050 / 71022.710.8 20.014.621.2
2017-Nov-19 15:57N 54°38' W 001°10'3 6.2
2017-Nov-19 15:30N 54°40' W 001°07'510.7
2017-Nov-19 15:00N 54°44' W 001°02'510.4
2017-Nov-19 14:30N 54°47' W 000°54'5 9.6
2017-Nov-19 14:00N 54°49' W 000°47'6626467719.3
2017-Nov-19 14:00S 29°48' E 071°54'662313409.4 080 / 81018.810.8 20.214.820.2
2017-Nov-19 13:30N 54°49' W 000°42'4 6.2
2017-Nov-19 12:53N 54°45' W 000°42'2 5.8
2017-Nov-19 12:29N 54°44' W 000°38'10 5.3
2017-Nov-19 10:38N 54°53' W 000°34'1 4.9
2017-Nov-19 10:30N 54°54' W 000°33'3 5.1
2017-Nov-19 09:56N 54°55' W 000°29'3 5.5
2017-Nov-19 09:24N 54°57' W 000°24'65861930.7
2017-Nov-19 06:00S 30°30' E 070°06'65882455.5 240 / 61019.9 5.4 21.410.919.6
2017-Nov-19 03:19N 54°60' W 000°24'2 6.0
2017-Nov-19 03:00N 54°58' W 000°27'3 5.9
2017-Nov-19 02:30N 54°56' W 000°30'3 6.2
2017-Nov-19 01:58N 54°54' W 000°34'3 6.2
2017-Nov-19 01:30N 54°52' W 000°38'3 6.6
2017-Nov-19 01:00N 54°49' W 000°41'4 6.9
2017-Nov-19 00:30N 54°46' W 000°45'2 5.0
2017-Nov-19 00:00N 54°45' W 000°49'6569414903.9
2017-Nov-19 00:00S 30°54' E 068°54'656813512.0 290 / 21019.310.8 19.511.119.4
2017-Nov-18 23:30N 54°49' W 000°42'5 8.8
2017-Nov-18 22:59N 54°53' W 000°38'5 9.2
2017-Nov-18 22:30N 54°57' W 000°37'65441452.3
2017-Nov-18 18:00S 31°18' E 067°36'15813.1 1023.610.8 19.515.318.7
2017-Nov-18 06:00S 32°12' E 064°42'8013.3 280 / 61019.310.8 20.917.518.4
2017-Nov-18 00:00S 32°36' E 063°12'7913.2 050 / 41021.8 5.4 18.513.8
2017-Nov-17 18:00S 33°00' E 061°42'7312.1 340 / 101020.5 5.4 18.014.217.9
2017-Nov-17 12:00S 33°18' E 060°18'6510.8 020 / 141022.510.8 20.214.4
2017-Nov-17 06:00S 33°42' E 059°06'16513.7 290 / 51021.210.8 20.014.917.1
2017-Nov-16 18:00S 34°24' E 055°54'601222334.0 070 / 161022.110.8 17.115.216.3
2017-Nov-16 17:43N 53°52' E 007°47'211.5
2017-Nov-16 17:30N 53°51' E 007°51'611.5
2017-Nov-16 17:00N 53°48' E 008°00'612.3
2017-Nov-16 16:30N 53°43' E 008°04'713.5
2017-Nov-16 16:00N 53°37' E 008°09'3 6.9
2017-Nov-16 15:30N 53°33' E 008°10'0 0.0
2017-Nov-16 14:53N 53°33' E 008°10'0 0.0
2017-Nov-16 14:29N 53°33' E 008°10'0 0.0
2017-Nov-16 13:59N 53°33' E 008°10'0 0.0
2017-Nov-16 13:25N 53°33' E 008°10'0 0.0
2017-Nov-16 12:59N 53°33' E 008°10'0 0.0
2017-Nov-16 12:29N 53°33' E 008°10'0 0.0
2017-Nov-16 11:59N 53°33' E 008°10'0 0.0
2017-Nov-16 11:29N 53°33' E 008°10'0 0.0
2017-Nov-16 10:59N 53°33' E 008°10'0 0.0
2017-Nov-16 10:29N 53°33' E 008°10'0 0.0
2017-Nov-16 09:59N 53°33' E 008°10'0 0.0
2017-Nov-16 09:25N 53°33' E 008°10'0 0.0
2017-Nov-16 08:59N 53°33' E 008°10'0 0.0
2017-Nov-16 08:29N 53°33' E 008°10'0 0.0
2017-Nov-16 08:00N 53°33' E 008°10'0 0.0
2017-Nov-16 07:26N 53°33' E 008°10'593913705.9
2017-Nov-16 07:00S 34°54' E 053°12'59392375693.4 350 / 111020.510.8 18.217.016.4
2017-Nov-16 06:59N 53°33' E 008°10'0 0.0
2017-Nov-16 06:29N 53°33' E 008°10'0 0.0
2017-Nov-16 05:55N 53°33' E 008°10'0 0.0
2017-Nov-16 05:25N 53°33' E 008°10'0 0.0
2017-Nov-16 04:59N 53°33' E 008°10'0 0.0
2017-Nov-16 04:29N 53°33' E 008°10'0 0.0
2017-Nov-16 03:59N 53°33' E 008°10'0 0.0
2017-Nov-16 03:25N 53°33' E 008°10'0 0.0
2017-Nov-16 02:59N 53°33' E 008°10'0 0.0
2017-Nov-16 02:29N 53°33' E 008°10'0 0.0
2017-Nov-16 01:55N 53°33' E 008°10'0 0.0
2017-Nov-16 01:29N 53°33' E 008°10'0 0.0
2017-Nov-16 00:59N 53°33' E 008°10'0 0.0
2017-Nov-16 00:25N 53°33' E 008°10'0 0.0
2017-Nov-15 23:59N 53°33' E 008°10'0 0.0
2017-Nov-15 23:29N 53°33' E 008°10'0 0.0
2017-Nov-15 22:59N 53°33' E 008°10'0 0.0
2017-Nov-15 22:29N 53°33' E 008°10'0 0.0
2017-Nov-15 21:59N 53°33' E 008°10'0 0.0
2017-Nov-15 21:26N 53°33' E 008°10'0 0.0
2017-Nov-15 20:59N 53°33' E 008°10'0 0.0
2017-Nov-15 20:29N 53°33' E 008°10'0 0.0
2017-Nov-15 19:59N 53°33' E 008°10'0 0.0
2017-Nov-15 19:29N 53°33' E 008°10'0 0.0
2017-Nov-15 18:59N 53°33' E 008°10'0 0.0
2017-Nov-15 18:29N 53°33' E 008°10'0 0.0
2017-Nov-15 17:55N 53°33' E 008°10'0 0.0
2017-Nov-15 17:25N 53°33' E 008°10'0 0.0
2017-Nov-15 16:59N 53°33' E 008°10'0 0.0
2017-Nov-15 16:29N 53°33' E 008°10'0 0.0
2017-Nov-15 15:59N 53°33' E 008°10'0 0.0
2017-Nov-15 15:29N 53°33' E 008°10'0 0.0
2017-Nov-15 14:59N 53°33' E 008°10'0 0.0
2017-Nov-15 14:29N 53°33' E 008°10'0 0.0
2017-Nov-15 13:59N 53°33' E 008°10'0 0.0
2017-Nov-15 13:29N 53°33' E 008°10'0 0.0
2017-Nov-15 12:56N 53°33' E 008°10'0 0.0
2017-Nov-15 12:30N 53°33' E 008°10'0 0.0
2017-Nov-15 11:59N 53°33' E 008°10'0 0.0
2017-Nov-15 11:29N 53°33' E 008°10'0 0.0
2017-Nov-15 10:59N 53°33' E 008°10'0 0.0
2017-Nov-15 10:29N 53°33' E 008°10'0 0.0
2017-Nov-15 09:59N 53°33' E 008°10'0 0.0
2017-Nov-15 09:29N 53°33' E 008°10'0 0.0
2017-Nov-15 08:59N 53°33' E 008°10'0 0.0
2017-Nov-15 08:26N 53°33' E 008°10'0 0.2
2017-Nov-15 08:00N 53°33' E 008°10'5841467316.9
2017-Nov-15 08:00S 35°48' E 047°18'584311918.4 360 / 131017.310.8 18.617.516.8
2017-Nov-15 07:30N 53°35' E 008°10'  
Track history (hours):
 
Tides and Currents Weather Stations Pressure Air Temp Water Temp Dewpoint Dewpoint Depression Visibility Wind Speed Wind Dir Waves Ship Positions

British Resource

Last reported at 2017-Nov-25 07:30 UTC. Time now 2017-Nov-25 07:54 UTC.
Position N 57°41' E 011°47'.

Length 250 m; draft 9 m.

Type: Ship. MMSI: 235108528.

Date/timePositionNaut miles runAvg speedWind from/ knotsBaromVisibWave heightAir tempDewpointWater temp
2017-Nov-25 07:30N 57°41' E 011°47'0 0.0
2017-Nov-25 07:00N 57°41' E 011°47'0 0.0
2017-Nov-25 06:29N 57°41' E 011°47'0 0.0
2017-Nov-25 05:51N 57°41' E 011°47'0 0.0
2017-Nov-25 05:24N 57°41' E 011°47'0 0.0
2017-Nov-25 04:59N 57°41' E 011°47'0 0.0
2017-Nov-25 04:29N 57°41' E 011°47'0 0.0
2017-Nov-25 04:00N 57°41' E 011°47'0 0.0
2017-Nov-25 03:29N 57°41' E 011°47'0 0.0
2017-Nov-25 02:59N 57°41' E 011°47'0 0.3
2017-Nov-25 02:31N 57°41' E 011°47'2 4.0
2017-Nov-25 02:00N 57°41' E 011°43'5 9.0
2017-Nov-25 01:30N 57°37' E 011°40'4 8.6
2017-Nov-25 01:00N 57°37' E 011°32'3 6.9
2017-Nov-25 00:30N 57°39' E 011°27'3 5.3
2017-Nov-25 00:00N 57°41' E 011°23'65481071462.9
2017-Nov-25 00:00S 16°06' E 097°24'655113484.9 110 / 191012.310.8 24.519.124.2
2017-Nov-24 23:30N 57°43' E 011°19'3 6.9
2017-Nov-24 23:00N 57°45' E 011°15'510.2
2017-Nov-24 22:30N 57°49' E 011°09'5 9.8
2017-Nov-24 22:01N 57°53' E 011°03'4 8.6
2017-Nov-24 21:30N 57°56' E 010°58'4 8.0
2017-Nov-24 20:58N 57°59' E 010°51'510.4
2017-Nov-24 20:30N 57°58' E 010°42'510.0
2017-Nov-24 20:00N 57°58' E 010°33'4 8.5
2017-Nov-24 19:30N 57°59' E 010°25'4 7.1
2017-Nov-24 19:01N 57°59' E 010°18'6608941.8
2017-Nov-24 12:00S 17°48' E 095°24'7512.4 150 / 191012.310.8 24.019.423.4
2017-Nov-24 06:00S 18°36' E 094°24'67166716.2 140 / 241014.310.8 22.019.523.4
2017-Nov-24 05:00N 56°18' E 006°30'67101342.0 250 / 251002.710.8 7.0 5.910.6
2017-Nov-24 00:00S 19°18' E 093°24'67154436.7 140 / 151014.610.8 22.816.422.9
2017-Nov-23 22:29N 55°17' E 005°39'5211.6
2017-Nov-23 18:00N 54°30' E 005°00'67061117.7 240 / 40996.8 5.4 11.0 5.611.1
2017-Nov-23 12:00S 20°48' E 091°18'67241120.7 120 / 211013.210.8 22.816.823.4
2017-Nov-23 06:00N 52°24' E 003°06'24 7.3 190 / 30989.0 5.4 13.0 9.111.8
2017-Nov-23 02:45N 52°08' E 003°34'3 9.7
2017-Nov-23 02:29N 52°07' E 003°38'510.2
2017-Nov-23 02:00N 52°04' E 003°45'510.2
2017-Nov-23 01:30N 52°03' E 003°53'510.6
2017-Nov-23 01:00N 52°00' E 004°00'3 7.0
2017-Nov-23 00:30N 51°58' E 004°04'0 0.1
2017-Nov-22 23:57N 51°58' E 004°04'0 0.0
2017-Nov-22 23:27N 51°58' E 004°04'0 0.0
2017-Nov-22 22:57N 51°58' E 004°04'0 0.0
2017-Nov-22 22:27N 51°58' E 004°04'0 0.0
2017-Nov-22 21:57N 51°58' E 004°04'0 0.0
2017-Nov-22 21:27N 51°58' E 004°04'0 0.0
2017-Nov-22 20:51N 51°58' E 004°04'0 0.0
2017-Nov-22 20:21N 51°58' E 004°04'0 0.0
2017-Nov-22 19:57N 51°58' E 004°04'0 0.0
2017-Nov-22 19:27N 51°58' E 004°04'6589883.5
2017-Nov-22 12:00S 23°18' E 086°36'7813.0 060 / 101013.110.8 23.417.122.3
2017-Nov-22 06:00S 24°00' E 085°24'6711.2 030 / 121014.410.8 24.019.522.4
2017-Nov-22 00:00S 24°30' E 084°18'7913.2 040 / 111014.510.8 22.917.522.3
2017-Nov-21 18:00S 25°06' E 083°00'14612.1 010 / 91015.410.8 21.219.322.5
2017-Nov-21 06:00S 26°12' E 080°36'30712.8 320 / 111019.010.8 22.018.922.6
2017-Nov-20 06:00S 28°24' E 075°24'15212.6 350 / 41018.810.8 22.017.520.8
2017-Nov-19 18:00S 29°30' E 072°48'66513245.4 050 / 71022.710.8 20.014.621.2
2017-Nov-19 15:57N 54°38' W 001°10'3 6.2
2017-Nov-19 15:30N 54°40' W 001°07'510.7
2017-Nov-19 15:00N 54°44' W 001°02'510.4
2017-Nov-19 14:30N 54°47' W 000°54'5 9.6
2017-Nov-19 14:00N 54°49' W 000°47'6626467719.3
2017-Nov-19 14:00S 29°48' E 071°54'662313409.4 080 / 81018.810.8 20.214.820.2
2017-Nov-19 13:30N 54°49' W 000°42'4 6.2
2017-Nov-19 12:53N 54°45' W 000°42'2 5.8
2017-Nov-19 12:29N 54°44' W 000°38'10 5.3
2017-Nov-19 10:38N 54°53' W 000°34'1 4.9
2017-Nov-19 10:30N 54°54' W 000°33'3 5.1
2017-Nov-19 09:56N 54°55' W 000°29'3 5.5
2017-Nov-19 09:24N 54°57' W 000°24'65861930.7
2017-Nov-19 06:00S 30°30' E 070°06'65882455.5 240 / 61019.9 5.4 21.410.919.6
2017-Nov-19 03:19N 54°60' W 000°24'2 6.0
2017-Nov-19 03:00N 54°58' W 000°27'3 5.9
2017-Nov-19 02:30N 54°56' W 000°30'3 6.2
2017-Nov-19 01:58N 54°54' W 000°34'3 6.2
2017-Nov-19 01:30N 54°52' W 000°38'3 6.6
2017-Nov-19 01:00N 54°49' W 000°41'4 6.9
2017-Nov-19 00:30N 54°46' W 000°45'2 5.0
2017-Nov-19 00:00N 54°45' W 000°49'6569414903.9
2017-Nov-19 00:00S 30°54' E 068°54'656813512.0 290 / 21019.310.8 19.511.119.4
2017-Nov-18 23:30N 54°49' W 000°42'5 8.8
2017-Nov-18 22:59N 54°53' W 000°38'5 9.2
2017-Nov-18 22:30N 54°57' W 000°37'65441452.3
2017-Nov-18 18:00S 31°18' E 067°36'15813.1 1023.610.8 19.515.318.7
2017-Nov-18 06:00S 32°12' E 064°42'8013.3 280 / 61019.310.8 20.917.518.4
2017-Nov-18 00:00S 32°36' E 063°12'7913.2 050 / 41021.8 5.4 18.513.8
2017-Nov-17 18:00S 33°00' E 061°42'7312.1 340 / 101020.5 5.4 18.014.217.9
2017-Nov-17 12:00S 33°18' E 060°18'6510.8 020 / 141022.510.8 20.214.4
2017-Nov-17 06:00S 33°42' E 059°06'16513.7 290 / 51021.210.8 20.014.917.1
2017-Nov-16 18:00S 34°24' E 055°54'601222334.0 070 / 161022.110.8 17.115.216.3
2017-Nov-16 17:43N 53°52' E 007°47'211.5
2017-Nov-16 17:30N 53°51' E 007°51'611.5
2017-Nov-16 17:00N 53°48' E 008°00'612.3
2017-Nov-16 16:30N 53°43' E 008°04'713.5
2017-Nov-16 16:00N 53°37' E 008°09'3 6.9
2017-Nov-16 15:30N 53°33' E 008°10'0 0.0
2017-Nov-16 14:53N 53°33' E 008°10'0 0.0
2017-Nov-16 14:29N 53°33' E 008°10'0 0.0
2017-Nov-16 13:59N 53°33' E 008°10'0 0.0
2017-Nov-16 13:25N 53°33' E 008°10'0 0.0
2017-Nov-16 12:59N 53°33' E 008°10'0 0.0
2017-Nov-16 12:29N 53°33' E 008°10'0 0.0
2017-Nov-16 11:59N 53°33' E 008°10'0 0.0
2017-Nov-16 11:29N 53°33' E 008°10'0 0.0
2017-Nov-16 10:59N 53°33' E 008°10'0 0.0
2017-Nov-16 10:29N 53°33' E 008°10'0 0.0
2017-Nov-16 09:59N 53°33' E 008°10'0 0.0
2017-Nov-16 09:25N 53°33' E 008°10'0 0.0
2017-Nov-16 08:59N 53°33' E 008°10'0 0.0
2017-Nov-16 08:29N 53°33' E 008°10'0 0.0
2017-Nov-16 08:00N 53°33' E 008°10'0 0.0
2017-Nov-16 07:26N 53°33' E 008°10'593913705.9
2017-Nov-16 07:00S 34°54' E 053°12'59392375693.4 350 / 111020.510.8 18.217.016.4
2017-Nov-16 06:59N 53°33' E 008°10'0 0.0
2017-Nov-16 06:29N 53°33' E 008°10'0 0.0
2017-Nov-16 05:55N 53°33' E 008°10'0 0.0
2017-Nov-16 05:25N 53°33' E 008°10'0 0.0
2017-Nov-16 04:59N 53°33' E 008°10'0 0.0
2017-Nov-16 04:29N 53°33' E 008°10'0 0.0
2017-Nov-16 03:59N 53°33' E 008°10'0 0.0
2017-Nov-16 03:25N 53°33' E 008°10'0 0.0
2017-Nov-16 02:59N 53°33' E 008°10'0 0.0
2017-Nov-16 02:29N 53°33' E 008°10'0 0.0
2017-Nov-16 01:55N 53°33' E 008°10'0 0.0
2017-Nov-16 01:29N 53°33' E 008°10'0 0.0
2017-Nov-16 00:59N 53°33' E 008°10'0 0.0
2017-Nov-16 00:25N 53°33' E 008°10'0 0.0
2017-Nov-15 23:59N 53°33' E 008°10'0 0.0
2017-Nov-15 23:29N 53°33' E 008°10'0 0.0
2017-Nov-15 22:59N 53°33' E 008°10'0 0.0
2017-Nov-15 22:29N 53°33' E 008°10'0 0.0
2017-Nov-15 21:59N 53°33' E 008°10'0 0.0
2017-Nov-15 21:26N 53°33' E 008°10'0 0.0
2017-Nov-15 20:59N 53°33' E 008°10'0 0.0
2017-Nov-15 20:29N 53°33' E 008°10'0 0.0
2017-Nov-15 19:59N 53°33' E 008°10'0 0.0
2017-Nov-15 19:29N 53°33' E 008°10'0 0.0
2017-Nov-15 18:59N 53°33' E 008°10'0 0.0
2017-Nov-15 18:29N 53°33' E 008°10'0 0.0
2017-Nov-15 17:55N 53°33' E 008°10'0 0.0
2017-Nov-15 17:25N 53°33' E 008°10'0 0.0
2017-Nov-15 16:59N 53°33' E 008°10'0 0.0
2017-Nov-15 16:29N 53°33' E 008°10'0 0.0
2017-Nov-15 15:59N 53°33' E 008°10'0 0.0
2017-Nov-15 15:29N 53°33' E 008°10'0 0.0
2017-Nov-15 14:59N 53°33' E 008°10'0 0.0
2017-Nov-15 14:29N 53°33' E 008°10'0 0.0
2017-Nov-15 13:59N 53°33' E 008°10'0 0.0
2017-Nov-15 13:29N 53°33' E 008°10'0 0.0
2017-Nov-15 12:56N 53°33' E 008°10'0 0.0
2017-Nov-15 12:30N 53°33' E 008°10'0 0.0
2017-Nov-15 11:59N 53°33' E 008°10'0 0.0
2017-Nov-15 11:29N 53°33' E 008°10'0 0.0
2017-Nov-15 10:59N 53°33' E 008°10'0 0.0
2017-Nov-15 10:29N 53°33' E 008°10'0 0.0
2017-Nov-15 09:59N 53°33' E 008°10'0 0.0
2017-Nov-15 09:29N 53°33' E 008°10'0 0.0
2017-Nov-15 08:59N 53°33' E 008°10'0 0.0
2017-Nov-15 08:26N 53°33' E 008°10'0 0.2
2017-Nov-15 08:00N 53°33' E 008°10'5841467316.9
2017-Nov-15 08:00S 35°48' E 047°18'584311918.4 360 / 131017.310.8 18.617.516.8
2017-Nov-15 07:30N 53°35' E 008°10'  

Dump ship's entire track history